createdAt,value
2022-12-19T00:01:56.117Z,-6.20
2022-12-19T00:04:23.676Z,-6.30
2022-12-19T00:06:51.164Z,-6.30
2022-12-19T00:09:18.589Z,-6.20
2022-12-19T00:11:48.601Z,-6.20
2022-12-19T00:14:16.003Z,-6.10
2022-12-19T00:16:43.613Z,-6.00
2022-12-19T00:19:12.039Z,-6.10
2022-12-19T00:21:39.878Z,-6.00
2022-12-19T00:24:13.130Z,-6.10
2022-12-19T00:26:50.251Z,-6.00
2022-12-19T00:29:17.830Z,-6.00
2022-12-19T00:31:45.439Z,-6.00
2022-12-19T00:34:12.993Z,-6.00
2022-12-19T00:36:40.493Z,-6.20
2022-12-19T00:39:08.774Z,-6.20
2022-12-19T00:41:41.673Z,-6.20
2022-12-19T00:44:29.573Z,-6.10
2022-12-19T00:46:57.052Z,-6.00
2022-12-19T00:49:24.709Z,-6.00
2022-12-19T00:51:52.046Z,-6.00
2022-12-19T00:54:19.432Z,-6.00
2022-12-19T00:56:47.008Z,-6.10
2022-12-19T00:59:14.530Z,-6.00
2022-12-19T01:01:44.672Z,-6.20
2022-12-19T01:04:33.466Z,-6.20
2022-12-19T01:07:03.245Z,-6.20
2022-12-19T01:09:31.925Z,-6.10
2022-12-19T01:12:17.894Z,-6.20
2022-12-19T01:14:45.686Z,-6.10
2022-12-19T01:17:13.122Z,-5.80
2022-12-19T01:19:44.255Z,-6.10
2022-12-19T01:22:13.694Z,-6.00
2022-12-19T01:24:41.600Z,-5.90
2022-12-19T01:27:09.500Z,-5.90
2022-12-19T01:29:45.334Z,-5.60
2022-12-19T01:32:21.149Z,-5.90
2022-12-19T01:34:48.656Z,-5.90
2022-12-19T01:37:17.962Z,-5.90
2022-12-19T01:39:46.023Z,-6.00
2022-12-19T01:42:22.330Z,-6.00
2022-12-19T01:45:17.219Z,-6.00
2022-12-19T01:47:44.521Z,-5.90
2022-12-19T01:50:19.699Z,-5.80
2022-12-19T01:52:47.847Z,-5.90
2022-12-19T01:55:15.847Z,-5.90
2022-12-19T01:57:43.271Z,-5.90
2022-12-19T02:00:11.163Z,-5.90
2022-12-19T02:02:43.683Z,-6.00
2022-12-19T02:05:11.236Z,-6.00
2022-12-19T02:07:40.671Z,-5.90
2022-12-19T02:10:08.322Z,-5.90
2022-12-19T02:12:39.210Z,-5.90
2022-12-19T02:15:07.942Z,-6.00
2022-12-19T02:17:44.903Z,-5.90
2022-12-19T02:20:35.046Z,-6.00
2022-12-19T02:23:40.000Z,-6.00
2022-12-19T02:26:34.391Z,-6.00
2022-12-19T02:29:29.748Z,-6.00
2022-12-19T02:32:04.786Z,-6.00
2022-12-19T02:34:44.583Z,-6.00
2022-12-19T02:37:19.104Z,-6.10
2022-12-19T02:39:56.793Z,-6.10
2022-12-19T02:42:37.976Z,-6.10
2022-12-19T02:45:09.174Z,-6.10
2022-12-19T02:47:38.609Z,-6.10
2022-12-19T02:50:07.842Z,-6.10
2022-12-19T02:52:35.206Z,-6.10
2022-12-19T02:55:11.294Z,-6.20
2022-12-19T02:57:56.839Z,-6.20
2022-12-19T03:00:27.187Z,-6.20
2022-12-19T03:03:23.306Z,-6.20
2022-12-19T03:06:08.207Z,-6.20
2022-12-19T03:08:53.836Z,-6.20
2022-12-19T03:11:23.772Z,-6.30
2022-12-19T03:13:57.204Z,-6.20
2022-12-19T03:16:25.294Z,-6.20
2022-12-19T03:18:53.897Z,-6.10
2022-12-19T03:21:34.526Z,-6.10
2022-12-19T03:24:03.258Z,-6.20
2022-12-19T03:26:37.028Z,-6.10
2022-12-19T03:29:21.619Z,-6.10
2022-12-19T03:31:49.443Z,-6.10
2022-12-19T03:34:34.992Z,-6.20
2022-12-19T03:37:05.399Z,-6.20
2022-12-19T03:39:34.323Z,-6.30
2022-12-19T03:42:22.404Z,-6.30
2022-12-19T03:44:51.657Z,-6.30
2022-12-19T03:47:21.789Z,-6.30
2022-12-19T03:49:49.618Z,-6.20
2022-12-19T03:52:23.209Z,-6.20
2022-12-19T03:55:10.711Z,-6.30
2022-12-19T03:57:46.946Z,-6.30
2022-12-19T04:00:17.668Z,-6.30
2022-12-19T04:02:51.397Z,-6.30
2022-12-19T04:05:22.935Z,-6.20
2022-12-19T04:07:54.253Z,-6.20
2022-12-19T04:10:24.941Z,-6.20
2022-12-19T04:13:01.849Z,-6.20
2022-12-19T04:15:51.006Z,-6.30
2022-12-19T04:18:20.985Z,-6.40
2022-12-19T04:20:58.412Z,-6.50
2022-12-19T04:23:33.649Z,-6.50
2022-12-19T04:26:04.435Z,-6.40
2022-12-19T04:28:44.082Z,-6.40
2022-12-19T04:31:16.327Z,-6.40
2022-12-19T04:33:43.928Z,-6.30
2022-12-19T04:36:11.778Z,-6.20
2022-12-19T04:38:39.238Z,-6.10
2022-12-19T04:41:07.331Z,-6.00
2022-12-19T04:43:34.725Z,-6.00
2022-12-19T04:46:02.198Z,-6.00
2022-12-19T04:48:29.763Z,-5.90
2022-12-19T04:50:57.162Z,-6.00
2022-12-19T04:53:24.572Z,-6.00
2022-12-19T04:55:59.818Z,-6.10
2022-12-19T04:58:27.296Z,-6.10
2022-12-19T05:00:54.829Z,-6.10
2022-12-19T05:03:22.861Z,-6.00
2022-12-19T05:05:50.298Z,-6.10
2022-12-19T05:08:17.773Z,-6.00
2022-12-19T05:10:45.138Z,-6.00
2022-12-19T05:13:13.206Z,-6.20
2022-12-19T05:15:40.636Z,-6.10
2022-12-19T05:18:08.083Z,-6.20
2022-12-19T05:20:37.278Z,-6.10
2022-12-19T05:23:08.094Z,-6.10
2022-12-19T05:25:40.804Z,-6.00
2022-12-19T05:28:08.200Z,-6.00
2022-12-19T05:30:36.371Z,-6.00
2022-12-19T05:33:04.092Z,-5.90
2022-12-19T05:35:31.516Z,-5.90
2022-12-19T05:37:58.855Z,-6.00
2022-12-19T05:40:26.576Z,-6.00
2022-12-19T05:42:54.045Z,-6.10
2022-12-19T05:45:22.768Z,-6.10
2022-12-19T05:47:50.260Z,-6.10
2022-12-19T05:50:18.312Z,-5.90
2022-12-19T05:52:45.745Z,-6.00
2022-12-19T05:55:13.276Z,-6.00
2022-12-19T05:57:40.709Z,-6.00
2022-12-19T06:00:08.852Z,-6.00
2022-12-19T06:02:36.302Z,-6.10
2022-12-19T06:05:03.956Z,-6.00
2022-12-19T06:07:31.307Z,-6.00
2022-12-19T06:09:58.657Z,-6.00
2022-12-19T06:12:25.989Z,-6.10
2022-12-19T06:14:53.445Z,-6.10
2022-12-19T06:17:20.997Z,-6.20
2022-12-19T06:19:48.503Z,-6.30
2022-12-19T06:22:15.916Z,-6.40
2022-12-19T06:24:43.352Z,-6.30
2022-12-19T06:27:10.793Z,-6.30
2022-12-19T06:29:38.286Z,-6.20
2022-12-19T06:32:05.994Z,-6.00
2022-12-19T06:37:23.504Z,-6.00
2022-12-19T06:39:51.502Z,-6.10
2022-12-19T06:42:24.806Z,-6.10
2022-12-19T06:44:54.357Z,-6.20
2022-12-19T06:47:23.888Z,-6.30
2022-12-19T06:49:51.912Z,-6.30
2022-12-19T06:52:19.500Z,-6.20
2022-12-19T06:54:47.083Z,-6.20
2022-12-19T06:57:14.558Z,-6.10
2022-12-19T06:59:42.435Z,-6.30
2022-12-19T07:02:15.795Z,-6.50
2022-12-19T07:04:48.873Z,-6.50
2022-12-19T07:07:16.998Z,-6.30
2022-12-19T07:09:44.371Z,-6.20
2022-12-19T07:12:11.835Z,-6.20
2022-12-19T07:14:39.221Z,-6.10
2022-12-19T07:17:06.747Z,-6.10
2022-12-19T07:19:35.118Z,-6.30
2022-12-19T07:22:04.196Z,-6.20
2022-12-19T07:24:32.172Z,-6.20
2022-12-19T07:26:59.682Z,-6.20
2022-12-19T07:29:27.097Z,-6.50
2022-12-19T07:31:54.844Z,-6.50
2022-12-19T07:34:22.349Z,-6.60
2022-12-19T07:36:49.866Z,-6.70
2022-12-19T07:39:17.325Z,-6.60
2022-12-19T07:41:44.869Z,-6.50
2022-12-19T07:44:13.535Z,-6.70
2022-12-19T07:46:41.114Z,-6.70
2022-12-19T07:49:08.687Z,-6.90
2022-12-19T07:51:36.262Z,-6.90
2022-12-19T07:54:06.657Z,-6.80
2022-12-19T07:56:34.015Z,-6.80
2022-12-19T07:59:01.582Z,-6.70
2022-12-19T08:01:29.686Z,-6.60
2022-12-19T08:03:58.304Z,-6.80
2022-12-19T08:06:26.841Z,-6.80
2022-12-19T08:08:54.462Z,-6.70
2022-12-19T08:11:27.252Z,-6.70
2022-12-19T08:13:55.263Z,-6.70
2022-12-19T08:16:24.726Z,-6.70
2022-12-19T08:18:52.612Z,-6.80
2022-12-19T08:21:20.199Z,-6.60
2022-12-19T08:23:47.652Z,-7.10
2022-12-19T08:26:24.915Z,-7.20
2022-12-19T08:28:54.860Z,-7.00
2022-12-19T08:31:25.228Z,-7.10
2022-12-19T08:33:57.044Z,-7.20
2022-12-19T08:51:17.036Z,-7.40
2022-12-19T08:53:46.485Z,-7.20
2022-12-19T08:56:19.207Z,-7.20
2022-12-19T08:58:46.917Z,-7.10
2022-12-19T09:01:19.283Z,-7.10
2022-12-19T09:04:09.963Z,-7.00
2022-12-19T09:06:35.023Z,-7.00
2022-12-19T09:09:05.035Z,-6.90
2022-12-19T09:11:32.653Z,-6.80
2022-12-19T09:14:02.217Z,-6.70
2022-12-19T09:16:29.724Z,-6.60
2022-12-19T09:18:58.845Z,-6.60
2022-12-19T09:21:29.328Z,-6.60
2022-12-19T09:24:03.445Z,-6.50
2022-12-19T09:26:35.393Z,-6.80
2022-12-19T09:29:05.011Z,-6.80
2022-12-19T09:31:40.093Z,-6.80
2022-12-19T09:34:07.460Z,-6.70
2022-12-19T09:36:35.220Z,-6.50
2022-12-19T09:39:02.673Z,-6.50
2022-12-19T09:41:38.954Z,-6.30
2022-12-19T09:44:15.631Z,-6.30
2022-12-19T09:46:58.493Z,-6.20
2022-12-19T09:49:36.700Z,-6.50
2022-12-19T09:52:18.342Z,-6.40
2022-12-19T09:55:17.308Z,-6.30
2022-12-19T09:58:22.248Z,-6.10
2022-12-19T10:00:59.681Z,-6.00
2022-12-19T10:03:41.699Z,-5.90
2022-12-19T10:07:07.837Z,-5.80
2022-12-19T10:11:13.322Z,-5.60
2022-12-19T10:12:39.324Z,-5.60
2022-12-19T10:15:20.716Z,-5.60
2022-12-19T10:17:57.471Z,-5.50
2022-12-19T10:20:42.357Z,-5.50
2022-12-19T10:23:21.818Z,-5.50
2022-12-19T10:26:11.086Z,-5.50
2022-12-19T10:28:49.039Z,-5.70
2022-12-19T10:31:46.275Z,-5.90
2022-12-19T10:34:24.540Z,-6.00
2022-12-19T10:40:06.531Z,-5.70
2022-12-19T10:43:10.360Z,-5.60
2022-12-19T10:45:46.907Z,-5.60
2022-12-19T10:48:30.831Z,-5.80
2022-12-19T10:51:00.151Z,-5.70
2022-12-19T10:53:34.439Z,-5.70
2022-12-19T10:56:12.282Z,-5.60
2022-12-19T10:58:44.466Z,-5.50
2022-12-19T11:01:36.613Z,-5.70
2022-12-19T11:04:29.206Z,-5.70
2022-12-19T11:07:03.925Z,-5.60
2022-12-19T11:09:46.840Z,-5.50
2022-12-19T11:17:01.443Z,-5.40
2022-12-19T11:20:29.202Z,-5.60
2022-12-19T11:23:46.448Z,-5.70
2022-12-19T11:29:25.302Z,-6.00
2022-12-19T11:29:37.373Z,-6.10
2022-12-19T11:30:37.606Z,-6.20
2022-12-19T11:32:44.379Z,-6.40
2022-12-19T11:35:37.101Z,-6.30
2022-12-19T11:38:08.431Z,-6.20
2022-12-19T11:40:56.941Z,-6.20
2022-12-19T11:43:49.559Z,-6.20
2022-12-19T11:46:40.547Z,-6.00
2022-12-19T11:49:29.042Z,-5.70
2022-12-19T11:52:29.458Z,-5.70
2022-12-19T11:55:07.544Z,-5.80
2022-12-19T11:57:42.162Z,-5.90
2022-12-19T12:00:17.613Z,-6.10
2022-12-19T12:03:00.048Z,-6.00
2022-12-19T12:05:44.494Z,-6.00
2022-12-19T12:10:59.085Z,-6.00
2022-12-19T12:19:01.707Z,-6.10
2022-12-19T12:25:12.385Z,-6.20
2022-12-19T12:28:47.910Z,-6.00
2022-12-19T12:31:05.511Z,-6.20
2022-12-19T12:31:16.639Z,-6.10
2022-12-19T12:31:42.237Z,-6.00
2022-12-19T12:31:58.102Z,-6.20
2022-12-19T12:35:54.204Z,-6.00
2022-12-19T12:37:49.462Z,-6.10
2022-12-19T12:39:14.283Z,-6.20
2022-12-19T12:42:20.204Z,-6.30
2022-12-19T12:44:50.593Z,-6.10
2022-12-19T12:47:23.261Z,-5.90
2022-12-19T12:49:54.750Z,-5.90
2022-12-19T12:52:30.956Z,-6.10
2022-12-19T12:54:58.845Z,-6.10
2022-12-19T12:57:29.962Z,-6.00
2022-12-19T13:00:18.407Z,-6.00
2022-12-19T13:03:13.884Z,-6.00
2022-12-19T13:05:44.304Z,-6.00
2022-12-19T13:08:34.859Z,-6.00
2022-12-19T13:11:11.892Z,-5.80
2022-12-19T13:13:51.987Z,-5.70
2022-12-19T13:16:45.124Z,-6.10
2022-12-19T13:19:33.300Z,-6.40
2022-12-19T13:22:09.702Z,-6.60
2022-12-19T13:24:57.461Z,-6.70
2022-12-19T13:27:40.748Z,-6.80
2022-12-19T13:44:01.061Z,-6.70
2022-12-19T13:46:45.716Z,-6.60
2022-12-19T13:49:34.669Z,-6.60
2022-12-19T13:52:04.580Z,-6.70
2022-12-19T13:54:44.643Z,-6.60
2022-12-19T13:57:28.428Z,-6.70
2022-12-19T14:00:01.348Z,-6.60
2022-12-19T14:02:33.087Z,-6.50
2022-12-19T14:06:16.849Z,-6.40
2022-12-19T14:08:25.560Z,-6.40
2022-12-19T14:11:44.297Z,-6.50
2022-12-19T14:14:16.347Z,-6.50
2022-12-19T14:16:46.146Z,-6.40
2022-12-19T14:19:22.374Z,-6.30
2022-12-19T14:22:04.178Z,-6.40
2022-12-19T14:24:37.667Z,-6.30
2022-12-19T14:28:16.786Z,-6.10
2022-12-19T14:30:28.110Z,-6.20
2022-12-19T14:33:45.282Z,-6.10
2022-12-19T14:36:07.954Z,-6.10
2022-12-19T14:39:22.318Z,-6.00
2022-12-19T14:42:02.954Z,-6.10
2022-12-19T14:52:34.244Z,-6.00
2022-12-19T14:54:06.295Z,-6.00
2022-12-19T14:54:15.971Z,-6.00
2022-12-19T14:54:38.019Z,-6.00
2022-12-19T14:59:02.497Z,-6.00
2022-12-19T15:01:33.379Z,-6.10
2022-12-19T15:04:49.291Z,-6.20
2022-12-19T15:07:09.128Z,-6.20
2022-12-19T15:10:58.089Z,-6.10
2022-12-19T15:14:54.531Z,-6.40
2022-12-19T15:16:04.225Z,-6.40
2022-12-19T15:18:34.354Z,-6.50
2022-12-19T15:21:08.255Z,-6.60
2022-12-19T15:23:35.881Z,-6.60
2022-12-19T15:26:11.412Z,-6.60
2022-12-19T15:28:41.630Z,-6.60
2022-12-19T15:31:30.278Z,-6.60
2022-12-19T15:36:45.866Z,-6.50
2022-12-19T15:39:15.179Z,-6.50
2022-12-19T15:41:44.107Z,-6.50
2022-12-19T15:44:22.428Z,-6.50
2022-12-19T15:46:49.951Z,-6.60
2022-12-19T15:49:19.726Z,-6.40
2022-12-19T15:51:48.054Z,-6.60
2022-12-19T15:54:47.303Z,-6.50
2022-12-19T15:57:03.345Z,-6.40
2022-12-19T15:59:45.071Z,-6.40
2022-12-19T16:02:42.757Z,-6.50
2022-12-19T16:05:15.676Z,-6.60
2022-12-19T16:07:43.638Z,-6.50
2022-12-19T16:10:12.436Z,-6.50
2022-12-19T16:12:48.217Z,-6.50
2022-12-19T16:15:25.795Z,-6.50
2022-12-19T16:17:54.972Z,-6.60
2022-12-19T16:20:25.739Z,-6.60
2022-12-19T16:22:53.918Z,-6.40
2022-12-19T16:25:24.039Z,-6.60
2022-12-19T16:27:56.198Z,-6.50
2022-12-19T16:30:31.671Z,-6.50
2022-12-19T16:32:59.797Z,-6.50
2022-12-19T16:36:02.265Z,-6.40
2022-12-19T16:38:18.635Z,-6.40
2022-12-19T16:40:47.237Z,-6.40
2022-12-19T16:43:34.183Z,-6.40
2022-12-19T16:46:04.838Z,-6.50
2022-12-19T16:48:32.458Z,-6.50
2022-12-19T16:51:00.649Z,-6.50
2022-12-19T16:53:28.278Z,-6.50
2022-12-19T16:55:57.725Z,-6.60
2022-12-19T16:58:27.756Z,-6.60
2022-12-19T17:00:56.116Z,-6.60
2022-12-19T17:03:44.541Z,-6.60
2022-12-19T17:06:17.537Z,-6.60
2022-12-19T17:08:45.507Z,-6.50
2022-12-19T17:11:31.516Z,-6.50
2022-12-19T17:14:08.577Z,-6.50
2022-12-19T17:16:36.805Z,-6.50
2022-12-19T17:19:04.658Z,-6.50
2022-12-19T17:21:32.172Z,-6.50
2022-12-19T17:23:59.728Z,-6.50
2022-12-19T17:26:27.504Z,-6.60
2022-12-19T17:28:56.098Z,-6.60
2022-12-19T17:31:28.789Z,-6.60
2022-12-19T17:33:58.298Z,-6.60
2022-12-19T17:36:34.827Z,-6.70
2022-12-19T17:39:20.012Z,-6.70
2022-12-19T17:41:48.819Z,-6.60
2022-12-19T17:44:16.371Z,-6.60
2022-12-19T17:46:44.737Z,-6.70
2022-12-19T17:49:24.828Z,-6.70
2022-12-19T17:51:52.840Z,-6.60
2022-12-19T17:54:21.393Z,-6.60
2022-12-19T17:56:49.795Z,-6.60
2022-12-19T17:59:17.423Z,-6.60
2022-12-19T18:01:47.426Z,-6.50
2022-12-19T18:04:18.468Z,-6.50
2022-12-19T18:06:46.736Z,-6.50
2022-12-19T18:09:22.173Z,-6.50
2022-12-19T18:11:51.235Z,-6.50
2022-12-19T18:14:19.023Z,-6.50
2022-12-19T18:16:46.851Z,-6.60
2022-12-19T18:19:23.148Z,-6.60
2022-12-19T18:21:50.782Z,-6.60
2022-12-19T18:24:18.424Z,-6.50
2022-12-19T18:26:46.054Z,-6.50
2022-12-19T18:29:14.298Z,-6.50
2022-12-19T18:31:48.328Z,-6.40
2022-12-19T18:34:23.260Z,-6.40
2022-12-19T18:36:52.363Z,-6.40
2022-12-19T18:39:23.045Z,-6.40
2022-12-19T18:41:52.123Z,-6.50
2022-12-19T18:44:20.044Z,-6.40
2022-12-19T18:46:51.079Z,-6.30
2022-12-19T18:49:18.875Z,-6.30
2022-12-19T18:51:46.807Z,-6.30
2022-12-19T18:54:20.099Z,-6.30
2022-12-19T18:56:48.076Z,-6.30
2022-12-19T18:59:15.785Z,-6.30
2022-12-19T19:01:46.772Z,-6.30
2022-12-19T19:04:18.357Z,-6.30
2022-12-19T19:06:52.201Z,-6.20
2022-12-19T19:09:21.419Z,-6.20
2022-12-19T19:11:49.438Z,-6.20
2022-12-19T19:14:17.011Z,-6.20
2022-12-19T19:16:46.107Z,-6.10
2022-12-19T19:19:17.769Z,-6.10
2022-12-19T19:21:45.566Z,-6.00
2022-12-19T19:24:16.583Z,-6.00
2022-12-19T19:26:44.159Z,-5.90
2022-12-19T19:29:13.759Z,-5.90
2022-12-19T19:31:43.975Z,-5.90
2022-12-19T19:34:40.873Z,-5.90
2022-12-19T19:37:13.002Z,-5.90
2022-12-19T19:39:43.745Z,-5.80
2022-12-19T19:42:11.547Z,-5.80
2022-12-19T19:44:39.334Z,-5.80
2022-12-19T19:47:06.915Z,-5.80
2022-12-19T19:49:34.420Z,-5.70
2022-12-19T19:52:03.093Z,-5.70
2022-12-19T19:54:31.697Z,-5.70
2022-12-19T19:56:59.241Z,-5.70
2022-12-19T19:59:30.871Z,-5.60
2022-12-19T20:01:58.660Z,-5.70
2022-12-19T20:04:26.450Z,-5.60
2022-12-19T20:06:53.930Z,-5.70
2022-12-19T20:09:21.356Z,-5.60
2022-12-19T20:11:48.713Z,-5.70
2022-12-19T20:14:16.263Z,-5.70
2022-12-19T20:16:43.855Z,-5.70
2022-12-19T20:19:11.302Z,-5.70
2022-12-19T20:21:38.817Z,-5.60
2022-12-19T20:24:06.742Z,-5.60
2022-12-19T20:26:34.915Z,-5.60
2022-12-19T20:29:03.155Z,-5.60
2022-12-19T20:31:31.393Z,-5.50
2022-12-19T20:33:59.178Z,-5.50
2022-12-19T20:36:26.651Z,-5.40
2022-12-19T20:38:54.016Z,-5.40
2022-12-19T20:41:21.458Z,-5.30
2022-12-19T20:43:49.551Z,-5.30
2022-12-19T20:46:19.281Z,-5.20
2022-12-19T20:48:48.526Z,-5.20
2022-12-19T20:51:17.809Z,-5.10
2022-12-19T20:53:46.098Z,-5.10
2022-12-19T20:56:16.104Z,-5.10
2022-12-19T20:58:43.651Z,-5.00
2022-12-19T21:01:22.353Z,-5.00
2022-12-19T21:03:50.404Z,-5.00
2022-12-19T21:06:20.635Z,-5.00
2022-12-19T21:08:48.786Z,-4.70
2022-12-19T21:11:16.499Z,-4.90
2022-12-19T21:13:44.380Z,-4.90
2022-12-19T21:16:15.582Z,-4.90
2022-12-19T21:18:44.642Z,-4.90
2022-12-19T21:21:16.055Z,-4.80
2022-12-19T21:23:44.079Z,-4.80
2022-12-19T21:26:11.967Z,-4.80
2022-12-19T21:28:39.646Z,-4.70
2022-12-19T21:31:17.910Z,-4.80
2022-12-19T21:33:46.609Z,-4.70
2022-12-19T21:36:19.185Z,-4.80
2022-12-19T21:38:48.352Z,-4.80
2022-12-19T21:41:19.256Z,-4.80
2022-12-19T21:43:54.653Z,-4.90
2022-12-19T21:46:24.600Z,-4.90
2022-12-19T21:48:53.852Z,-4.90
2022-12-19T21:51:23.420Z,-4.70
2022-12-19T21:54:00.900Z,-4.80
2022-12-19T21:56:34.504Z,-4.70
2022-12-19T21:59:04.843Z,-4.70
2022-12-19T22:01:33.297Z,-4.70
2022-12-19T22:04:12.775Z,-4.70
2022-12-19T22:06:40.389Z,-4.60
2022-12-19T22:09:12.077Z,-4.70
2022-12-19T22:11:39.867Z,-4.60
2022-12-19T22:14:08.060Z,-4.70
2022-12-19T22:16:36.071Z,-4.70
2022-12-19T22:19:04.818Z,-4.60
2022-12-19T22:21:32.962Z,-4.40
2022-12-19T22:24:01.967Z,-4.60
2022-12-19T22:26:31.462Z,-4.60
2022-12-19T22:28:59.575Z,-4.60
2022-12-19T22:31:32.347Z,-4.60
2022-12-19T22:34:06.167Z,-4.70
2022-12-19T22:36:35.947Z,-4.50
2022-12-19T22:39:07.001Z,-4.50
2022-12-19T22:41:36.300Z,-4.50
2022-12-19T22:44:04.220Z,-4.50
2022-12-19T22:46:34.412Z,-4.50
2022-12-19T22:49:08.875Z,-4.50
2022-12-19T22:51:36.987Z,-4.40
2022-12-19T22:54:05.760Z,-4.40
2022-12-19T22:56:35.156Z,-4.40
2022-12-19T22:59:05.558Z,-4.40
2022-12-19T23:01:37.002Z,-4.30
2022-12-19T23:04:05.885Z,-4.20
2022-12-19T23:06:35.911Z,-4.20
2022-12-19T23:09:07.898Z,-4.20
2022-12-19T23:11:40.113Z,-4.20
2022-12-19T23:14:09.895Z,-4.20
2022-12-19T23:16:37.616Z,-4.20
2022-12-19T23:19:05.509Z,-4.10
2022-12-19T23:21:33.030Z,-4.10
2022-12-19T23:24:00.641Z,-4.10
2022-12-19T23:26:30.862Z,-4.10
2022-12-19T23:29:01.383Z,-4.00
2022-12-19T23:31:29.740Z,-4.00
2022-12-19T23:33:58.264Z,-4.00
2022-12-19T23:39:13.946Z,-3.90
2022-12-19T23:41:41.587Z,-3.80
2022-12-19T23:44:09.933Z,-3.80
2022-12-19T23:46:37.974Z,-3.80
2022-12-19T23:49:05.855Z,-3.70
2022-12-19T23:51:33.279Z,-3.70
2022-12-19T23:54:00.808Z,-3.70
2022-12-19T23:56:30.609Z,-3.70
2022-12-19T23:58:58.810Z,-3.70
